Time;durP1;ratioP1;P1;durP2;ratioP2;P2;SDS_P1;SDS_P2;PMS_P1;PMS_P2;Temp;Humidity;BMP_temperature;BMP_pressure;BME280_temperature;BME280_humidity;BME280_pressure;Samples;Min_cycle;Max_cycle;Signal;HPM_P1;HPM_P2
2023/06/19 00:01:29;;;;;;;3.35;2.10;;;;;;;21.95;64.37;99481.13;5133232;27;20038;-84
2023/06/19 00:03:54;;;;;;;3.60;1.95;;;;;;;21.87;64.75;99486.13;5133220;27;20031;-84
2023/06/19 00:06:20;;;;;;;7.55;2.60;;;;;;;21.77;64.58;99488.56;5132313;27;20031;-84
2023/06/19 00:08:45;;;;;;;2.78;1.73;;;;;;;21.96;64.98;99515.06;5114551;27;20039;-84
2023/06/19 00:11:11;;;;;;;3.50;2.03;;;;;;;21.73;65.05;99479.84;5132905;27;20031;-84
2023/06/19 00:13:36;;;;;;;2.30;1.90;;;;;;;21.87;64.97;99505.78;5132727;27;20149;-83
2023/06/19 00:16:02;;;;;;;4.85;2.70;;;;;;;21.68;65.14;99459.63;5114505;27;20092;-84
2023/06/19 00:18:29;;;;;;;4.10;2.35;;;;;;;21.91;64.88;99490.34;5132754;27;20023;-85
2023/06/19 00:20:55;;;;;;;3.90;1.58;;;;;;;21.85;64.73;99504.19;5132900;27;20043;-84
2023/06/19 00:23:22;;;;;;;3.63;2.08;;;;;;;21.91;64.84;99510.00;5132871;27;20034;-86
2023/06/19 00:25:47;;;;;;;4.05;2.55;;;;;;;21.82;64.94;99497.19;5131213;27;20031;-85
2023/06/19 00:28:14;;;;;;;10.00;2.35;;;;;;;21.85;65.07;99510.41;5114198;27;20365;-85
2023/06/19 00:30:40;;;;;;;2.45;2.25;;;;;;;21.97;64.59;99500.69;5132760;27;20042;-85
2023/06/19 00:33:07;;;;;;;5.82;3.22;;;;;;;21.76;65.75;99519.91;5131834;27;20072;-85
2023/06/19 00:35:33;;;;;;;10.95;2.00;;;;;;;21.78;64.90;99501.88;5132087;27;20118;-85
2023/06/19 00:38:01;;;;;;;3.38;2.17;;;;;;;21.53;65.29;99493.69;5132624;27;20473;-84
2023/06/19 00:40:28;;;;;;;4.88;2.28;;;;;;;21.69;66.06;99525.75;5113965;27;20066;-85
2023/06/19 00:42:54;;;;;;;5.95;2.72;;;;;;;21.53;65.07;99470.38;5132202;27;20408;-85
2023/06/19 00:45:20;;;;;;;3.97;2.05;;;;;;;21.64;64.97;99518.88;5131991;27;20030;-84
2023/06/19 00:47:46;;;;;;;5.93;2.85;;;;;;;21.68;65.65;99519.53;5132227;27;20027;-85
2023/06/19 00:50:12;;;;;;;3.65;2.55;;;;;;;21.41;65.62;99504.22;5113195;27;20039;-84
2023/06/19 00:52:37;;;;;;;3.80;2.38;;;;;;;21.50;66.00;99510.81;5131825;27;20043;-84
2023/06/19 00:55:05;;;;;;;3.78;2.38;;;;;;;21.47;65.96;99489.53;5131823;27;20502;-84
2023/06/19 00:57:31;;;;;;;3.78;1.95;;;;;;;21.62;66.04;99530.66;5132307;27;20027;-85
2023/06/19 00:59:57;;;;;;;4.65;2.25;;;;;;;21.38;66.18;99496.34;5132030;27;20033;-85
2023/06/19 01:02:23;;;;;;;2.75;2.28;;;;;;;21.34;66.27;99504.69;5131487;27;20031;-85
2023/06/19 01:04:51;;;;;;;3.72;2.25;;;;;;;21.35;65.65;99498.34;5131600;27;20026;-85
2023/06/19 01:07:25;;;;;;;3.35;2.15;;;;;;;21.27;66.30;99498.81;5131793;27;20023;-89
2023/06/19 01:09:57;;;;;;;4.82;2.72;;;;;;;21.03;66.36;99504.75;5131067;27;20092;-85
2023/06/19 01:12:30;;;;;;;3.05;1.63;;;;;;;21.22;65.63;99514.34;5131870;27;20183;-86
2023/06/19 01:15:02;;;;;;;2.85;1.90;;;;;;;21.07;65.74;99474.13;5131324;27;20484;-86
2023/06/19 01:17:29;;;;;;;7.28;2.35;;;;;;;21.11;66.00;99490.88;5096830;27;20035;-86
2023/06/19 01:19:59;;;;;;;5.25;2.00;;;;;;;21.53;65.07;99520.50;5131595;27;20047;-86
2023/06/19 01:22:28;;;;;;;4.78;2.55;;;;;;;21.23;65.25;99471.34;5123717;27;20031;-86
2023/06/19 01:24:54;;;;;;;3.53;2.20;;;;;;;21.37;64.88;99494.63;5112724;27;20440;-86
2023/06/19 01:27:20;;;;;;;3.42;2.33;;;;;;;21.18;65.89;99515.50;5131664;27;20031;-87
2023/06/19 01:29:46;;;;;;;4.05;2.25;;;;;;;21.38;65.34;99514.25;5121997;27;20032;-86
2023/06/19 01:32:30;;;;;;;3.00;1.95;;;;;;;21.08;65.38;99475.84;5092612;28;20083;-83
2023/06/19 01:34:57;;;;;;;3.33;1.85;;;;;;;21.27;64.74;99494.34;5129141;27;20030;-84
2023/06/19 01:37:28;;;;;;;4.63;2.30;;;;;;;21.16;64.57;99478.03;5130946;27;20031;-84
2023/06/19 01:39:56;;;;;;;2.97;2.00;;;;;;;21.09;64.64;99474.03;5131235;27;20111;-84
2023/06/19 01:42:24;;;;;;;2.95;2.05;;;;;;;21.02;65.86;99496.81;5131761;27;20114;-84
2023/06/19 01:44:51;;;;;;;3.03;1.98;;;;;;;21.01;64.82;99469.16;5131769;27;20043;-86
2023/06/19 01:47:19;;;;;;;5.00;2.03;;;;;;;21.14;65.11;99495.19;5131668;27;20031;-84
2023/06/19 01:49:46;;;;;;;3.63;2.72;;;;;;;21.19;65.76;99520.75;5131094;27;20035;-83
2023/06/19 01:52:13;;;;;;;2.97;1.67;;;;;;;21.21;65.89;99524.22;5131048;27;20103;-83
2023/06/19 01:54:38;;;;;;;4.50;2.25;;;;;;;21.22;64.94;99483.00;5130940;27;20023;-84
2023/06/19 01:57:04;;;;;;;3.38;2.65;;;;;;;21.23;65.34;99486.59;5130954;27;20448;-84
2023/06/19 01:59:29;;;;;;;4.05;1.60;;;;;;;21.14;65.46;99527.38;5112456;28;20388;-84
2023/06/19 02:01:55;;;;;;;3.30;2.13;;;;;;;21.10;66.12;99511.47;5131340;28;20026;-84
2023/06/19 02:04:20;;;;;;;17.02;2.55;;;;;;;20.92;65.78;99478.59;5131045;28;20480;-87
2023/06/19 02:06:46;;;;;;;3.30;2.00;;;;;;;21.11;65.30;99496.25;5130860;28;20217;-84
2023/06/19 02:09:11;;;;;;;2.92;1.98;;;;;;;21.03;65.65;99499.41;5130622;28;20502;-84
2023/06/19 02:11:37;;;;;;;4.03;2.40;;;;;;;21.10;65.16;99490.03;5130657;28;20035;-85
2023/06/19 02:14:02;;;;;;;4.20;2.72;;;;;;;21.22;65.11;99509.00;5130535;28;20039;-84
2023/06/19 02:16:28;;;;;;;3.80;2.35;;;;;;;21.20;65.46;99519.81;5112549;28;20027;-84
2023/06/19 02:18:53;;;;;;;4.25;1.98;;;;;;;21.29;65.09;99537.16;5111804;28;20481;-84
2023/06/19 02:21:19;;;;;;;3.63;2.20;;;;;;;20.92;65.74;99517.97;5131647;28;20038;-84
2023/06/19 02:23:44;;;;;;;3.60;2.63;;;;;;;21.19;65.29;99530.63;5130754;28;20031;-85
2023/06/19 02:26:10;;;;;;;4.20;3.25;;;;;;;21.31;64.45;99505.72;5130715;28;20043;-85
2023/06/19 02:28:35;;;;;;;3.45;1.80;;;;;;;21.30;64.01;99493.25;5112128;28;20442;-84
2023/06/19 02:31:01;;;;;;;4.13;1.70;;;;;;;21.26;64.40;99508.69;5131000;28;20109;-85
2023/06/19 02:33:26;;;;;;;3.55;2.03;;;;;;;21.08;64.66;99504.47;5130266;28;20050;-84
2023/06/19 02:35:51;;;;;;;2.88;1.92;;;;;;;20.95;65.13;99524.97;5130958;28;20074;-83
2023/06/19 02:38:21;;;;;;;3.97;3.10;;;;;;;21.20;65.00;99511.75;5112340;28;20038;-83
2023/06/19 02:40:46;;;;;;;4.25;2.60;;;;;;;21.17;64.25;99506.59;5130513;28;20042;-84
2023/06/19 02:43:12;;;;;;;3.50;2.00;;;;;;;21.13;64.22;99493.47;5130703;28;20042;-84
2023/06/19 02:45:37;;;;;;;2.50;1.38;;;;;;;21.20;64.36;99500.19;5130000;28;20027;-83
2023/06/19 02:48:03;;;;;;;8.63;2.75;;;;;;;21.29;63.73;99507.66;5130486;27;20085;-83
2023/06/19 02:50:29;;;;;;;2.88;1.77;;;;;;;21.34;64.19;99510.91;5133612;27;20400;-85
2023/06/19 02:52:54;;;;;;;4.18;2.85;;;;;;;21.17;65.02;99505.75;5134809;27;20031;-86
2023/06/19 02:55:20;;;;;;;2.08;1.48;;;;;;;21.00;65.75;99522.88;5133401;27;20060;-85
2023/06/19 02:57:46;;;;;;;3.47;2.13;;;;;;;20.77;66.67;99498.31;5133332;27;20420;-83
2023/06/19 03:00:12;;;;;;;4.07;2.03;;;;;;;20.90;66.35;99526.09;5133687;27;20140;-84
2023/06/19 03:02:37;;;;;;;2.85;2.22;;;;;;;20.82;66.08;99506.94;5115371;27;20536;-84
2023/06/19 03:05:03;;;;;;;3.63;2.17;;;;;;;20.99;65.67;99538.09;5115150;27;20133;-86
2023/06/19 03:07:28;;;;;;;4.18;2.10;;;;;;;21.22;64.74;99531.28;5133032;27;20428;-84
2023/06/19 03:09:54;;;;;;;9.93;3.28;;;;;;;21.22;64.60;99536.66;5133132;27;20023;-85
2023/06/19 03:12:21;;;;;;;3.22;2.03;;;;;;;21.00;64.94;99509.47;5133119;27;20218;-84
2023/06/19 03:14:47;;;;;;;6.32;2.97;;;;;;;21.04;64.75;99509.19;5133479;27;20153;-86
2023/06/19 03:17:14;;;;;;;3.33;1.92;;;;;;;21.25;65.05;99559.75;5132638;27;20051;-84
2023/06/19 03:19:39;;;;;;;2.90;1.40;;;;;;;21.13;65.07;99522.97;5114869;27;20410;-85
2023/06/19 03:22:04;;;;;;;2.55;1.67;;;;;;;21.21;64.58;99532.28;5132935;27;20023;-85
2023/06/19 03:24:30;;;;;;;3.42;2.17;;;;;;;21.03;65.23;99506.59;5133183;27;20485;-84
2023/06/19 03:26:55;;;;;;;2.88;1.70;;;;;;;20.81;65.51;99497.16;5104286;28;20081;-85
2023/06/19 03:29:21;;;;;;;2.75;1.45;;;;;;;21.19;64.78;99544.91;5129885;27;20118;-84
2023/06/19 03:31:46;;;;;;;2.25;1.67;;;;;;;21.21;64.64;99548.38;5132953;27;20485;-86
2023/06/19 03:34:12;;;;;;;3.13;2.35;;;;;;;21.20;64.49;99521.63;5132781;27;20035;-85
2023/06/19 03:36:38;;;;;;;2.30;1.65;;;;;;;21.24;64.43;99528.53;5133393;27;20043;-84
2023/06/19 03:39:04;;;;;;;4.13;2.35;;;;;;;21.12;64.17;99487.25;5131650;27;20035;-85
2023/06/19 03:41:29;;;;;;;3.58;2.78;;;;;;;21.52;64.57;99546.50;5133089;27;20592;-85
2023/06/19 03:43:55;;;;;;;2.50;2.25;;;;;;;21.31;63.82;99539.75;5132748;27;20141;-85
2023/06/19 03:46:20;;;;;;;1.85;1.42;;;;;;;21.58;63.17;99519.28;5132348;27;20027;-85
2023/06/19 03:48:46;;;;;;;3.13;2.03;;;;;;;21.69;63.42;99539.19;5131574;27;20385;-86
2023/06/19 03:51:11;;;;;;;1.98;1.48;;;;;;;21.74;63.11;99513.78;5131625;27;20061;-84
2023/06/19 03:53:37;;;;;;;2.72;1.60;;;;;;;22.00;62.49;99560.44;5132478;27;20095;-85
2023/06/19 03:56:02;;;;;;;3.67;2.33;;;;;;;21.89;63.01;99536.09;5132894;27;20027;-86
2023/06/19 03:58:28;;;;;;;4.50;2.70;;;;;;;21.97;62.92;99554.41;5133426;27;20058;-87
2023/06/19 04:00:53;;;;;;;3.30;1.83;;;;;;;21.63;63.35;99518.97;5114172;27;20038;-86
2023/06/19 04:03:19;;;;;;;3.15;2.25;;;;;;;21.71;63.91;99530.09;5133035;27;20060;-86
2023/06/19 04:05:44;;;;;;;3.50;1.98;;;;;;;21.77;62.75;99518.09;5121503;27;20088;-85
2023/06/19 04:08:10;;;;;;;2.95;1.92;;;;;;;22.00;62.73;99533.56;5130851;27;20062;-85
2023/06/19 04:10:35;;;;;;;2.85;1.92;;;;;;;22.03;62.30;99529.84;5130786;27;20038;-85
2023/06/19 04:13:01;;;;;;;2.40;1.33;;;;;;;22.17;62.49;99524.41;5124091;27;20043;-85
2023/06/19 04:15:26;;;;;;;3.28;1.98;;;;;;;22.27;61.66;99523.81;5130760;27;20046;-86
2023/06/19 04:17:52;;;;;;;3.15;2.00;;;;;;;22.10;61.14;99493.53;5129532;27;20027;-84
2023/06/19 04:20:17;;;;;;;2.88;1.63;;;;;;;22.53;60.58;99530.16;5132054;27;20511;-85
2023/06/19 04:22:43;;;;;;;2.97;2.13;;;;;;;22.68;61.58;99517.53;5130943;27;20055;-86
2023/06/19 04:25:10;;;;;;;3.45;2.38;;;;;;;22.33;61.63;99467.00;5127092;27;20035;-87
2023/06/19 04:27:36;;;;;;;2.92;1.67;;;;;;;22.59;61.21;99462.53;5125508;27;20031;-85
2023/06/19 04:30:03;;;;;;;2.78;1.90;;;;;;;22.44;61.21;99483.25;5128354;27;20529;-84
2023/06/19 04:32:29;;;;;;;4.65;2.85;;;;;;;22.63;61.72;99500.81;5111584;28;20023;-84
2023/06/19 04:34:55;;;;;;;4.50;2.20;;;;;;;22.74;61.93;99503.66;5121912;27;20027;-83
2023/06/19 04:37:20;;;;;;;3.13;1.95;;;;;;;23.00;60.17;99525.19;5130586;27;20028;-84
2023/06/19 04:39:46;;;;;;;2.80;1.73;;;;;;;23.24;60.51;99554.94;5130646;27;20039;-83
2023/06/19 04:42:20;;;;;;;4.65;1.50;;;;;;;23.01;60.70;99540.34;5112229;27;20030;-85
2023/06/19 04:44:46;;;;;;;3.92;2.03;;;;;;;23.30;59.79;99551.81;5131372;27;20469;-83
2023/06/19 04:47:13;;;;;;;3.35;2.35;;;;;;;23.38;58.60;99525.22;5131235;27;20038;-83
2023/06/19 04:49:38;;;;;;;3.83;2.00;;;;;;;23.50;58.64;99536.09;5113055;27;20068;-84
2023/06/19 04:52:04;;;;;;;2.72;2.08;;;;;;;23.51;58.38;99565.59;5131878;27;20023;-86
2023/06/19 04:54:32;;;;;;;2.22;1.83;;;;;;;23.34;58.86;99520.16;5126858;27;20544;-89
2023/06/19 04:56:57;;;;;;;2.53;1.77;;;;;;;23.65;58.58;99548.47;5132113;27;20076;-88
2023/06/19 04:59:23;;;;;;;2.85;2.03;;;;;;;23.78;57.82;99535.81;5129998;27;20027;-86
2023/06/19 05:01:48;;;;;;;2.72;2.10;;;;;;;23.54;57.18;99516.94;5131132;27;20080;-82
2023/06/19 05:04:14;;;;;;;3.88;2.03;;;;;;;23.76;58.48;99524.31;5130226;27;20023;-85
2023/06/19 05:06:40;;;;;;;2.72;2.35;;;;;;;23.50;56.90;99484.94;5131723;27;20462;-87
2023/06/19 05:09:06;;;;;;;3.28;1.75;;;;;;;23.50;57.88;99495.72;5131853;27;20426;-86
2023/06/19 05:11:32;;;;;;;3.78;1.60;;;;;;;23.89;57.73;99551.22;5132160;27;20080;-89
2023/06/19 05:13:57;;;;;;;4.13;2.13;;;;;;;23.94;56.69;99534.72;5109759;28;20055;-86
2023/06/19 05:16:24;;;;;;;2.72;1.75;;;;;;;23.87;55.57;99506.53;5111296;28;20041;-82
2023/06/19 05:18:53;;;;;;;2.83;1.80;;;;;;;23.85;57.03;99465.38;5110076;28;20031;-88
2023/06/19 05:21:18;;;;;;;2.15;1.65;;;;;;;23.90;56.16;99504.47;5109897;28;20110;-88
2023/06/19 05:23:44;;;;;;;3.38;2.10;;;;;;;24.48;56.87;99549.59;5107496;28;20052;-87
2023/06/19 05:26:09;;;;;;;3.35;1.88;;;;;;;24.30;56.10;99527.59;5108829;28;20051;-88
2023/06/19 05:28:35;;;;;;;2.72;1.65;;;;;;;24.41;55.27;99516.88;5110767;28;20036;-88
2023/06/19 05:31:00;;;;;;;8.15;2.63;;;;;;;24.33;54.27;99529.19;5107724;28;20038;-87
2023/06/19 05:33:26;;;;;;;2.90;1.85;;;;;;;24.13;54.40;99481.22;5105099;28;20488;-88
2023/06/19 05:35:53;;;;;;;2.95;1.75;;;;;;;24.41;53.38;99489.91;5108991;28;20024;-86
2023/06/19 05:38:20;;;;;;;4.10;1.90;;;;;;;24.61;53.55;99536.97;5103487;28;20046;-88
2023/06/19 05:40:45;;;;;;;1.70;1.30;;;;;;;24.24;53.30;99482.25;5110490;28;20015;-87
2023/06/19 05:43:11;;;;;;;1.02;0.90;;;;;;;24.59;53.75;99508.38;5110246;28;20030;-89
2023/06/19 05:45:37;;;;;;;2.38;1.48;;;;;;;24.91;52.64;99548.22;5109196;28;20456;-88
2023/06/19 05:48:03;;;;;;;2.17;1.75;;;;;;;24.85;51.32;99530.66;5104480;28;20028;-88
2023/06/19 05:50:30;;;;;;;1.85;1.38;;;;;;;25.16;51.52;99555.25;5090413;28;20398;-91
2023/06/19 05:52:59;;;;;;;1.45;1.35;;;;;;;25.10;51.27;99531.44;5107618;28;20051;-91
2023/06/19 05:55:33;;;;;;;2.83;1.83;;;;;;;25.07;51.29;99502.88;5123993;28;20032;-92
2023/06/19 05:58:02;;;;;;;3.58;2.05;;;;;;;25.45;48.66;99573.75;5112267;28;20046;-92
2023/06/19 06:00:39;;;;;;;3.63;1.85;;;;;;;25.15;49.80;99499.59;5122742;28;20034;-93
2023/06/19 06:03:05;;;;;;;4.22;1.52;;;;;;;25.43;49.91;99516.31;5110389;28;20087;-88
2023/06/19 06:05:30;;;;;;;3.13;2.08;;;;;;;25.40;50.49;99486.88;5102913;28;20461;-90
2023/06/19 06:07:56;;;;;;;1.95;1.23;;;;;;;25.46;49.73;99532.28;5097986;28;20020;-87
2023/06/19 06:10:23;;;;;;;4.63;1.98;;;;;;;25.35;49.09;99509.69;5109811;28;20397;-90
2023/06/19 06:12:49;;;;;;;2.08;1.63;;;;;;;25.47;47.94;99525.88;5118214;28;20174;-90
2023/06/19 06:15:15;;;;;;;2.92;1.75;;;;;;;25.74;49.35;99522.81;5131055;28;20510;-90
2023/06/19 06:17:41;;;;;;;2.47;1.73;;;;;;;26.14;48.01;99527.69;5109020;28;20019;-87
2023/06/19 06:20:12;;;;;;;1.98;1.40;;;;;;;26.25;47.74;99527.63;5139319;27;20019;-90
2023/06/19 06:22:41;;;;;;;3.60;1.98;;;;;;;26.17;46.93;99523.88;5155983;27;20011;-87
2023/06/19 06:25:07;;;;;;;2.88;1.70;;;;;;;26.55;49.32;99515.22;5139528;27;20060;-87
2023/06/19 06:27:33;;;;;;;1.67;1.23;;;;;;;26.39;46.50;99512.13;5158804;27;20040;-88
2023/06/19 06:29:58;;;;;;;3.80;1.60;;;;;;;26.48;48.00;99541.09;5158629;27;20011;-89
2023/06/19 06:32:24;;;;;;;3.08;1.98;;;;;;;26.62;47.09;99531.81;5150972;27;20126;-89
2023/06/19 06:34:49;;;;;;;2.33;1.52;;;;;;;27.25;47.61;99566.16;5157562;27;20031;-94
2023/06/19 06:37:17;;;;;;;1.95;1.60;;;;;;;27.04;45.40;99491.25;5155107;27;20044;-93
2023/06/19 06:39:43;;;;;;;3.10;1.80;;;;;;;27.07;46.76;99565.94;5154483;27;20015;-90
2023/06/19 06:42:08;;;;;;;5.45;2.20;;;;;;;27.03;44.49;99508.47;5136752;27;20038;-94
2023/06/19 06:44:35;;;;;;;2.88;1.50;;;;;;;26.77;44.47;99492.66;5144435;27;20034;-93
2023/06/19 06:47:01;;;;;;;2.92;1.63;;;;;;;27.03;43.97;99485.97;5135106;27;20035;-90
2023/06/19 06:49:26;;;;;;;3.15;1.98;;;;;;;27.22;45.12;99496.03;5117688;28;20100;-90
2023/06/19 06:51:52;;;;;;;3.72;1.60;;;;;;;26.92;44.42;99490.47;5083287;28;20036;-91
2023/06/19 06:54:18;;;;;;;3.05;1.77;;;;;;;27.15;44.26;99502.00;5116638;28;20031;-89
2023/06/19 06:56:47;;;;;;;3.00;1.88;;;;;;;27.61;43.89;99537.75;5114150;28;20039;-88
2023/06/19 06:59:15;;;;;;;4.25;1.85;;;;;;;28.07;45.56;99526.50;5114178;28;20024;-88
2023/06/19 07:01:41;;;;;;;3.42;2.15;;;;;;;28.02;42.42;99506.09;5114432;28;20032;-90
2023/06/19 07:04:07;;;;;;;2.13;1.83;;;;;;;27.61;43.38;99532.31;5109862;28;20130;-91
2023/06/19 07:06:32;;;;;;;2.35;1.88;;;;;;;27.71;42.07;99517.97;5128705;27;20027;-90
2023/06/19 07:08:58;;;;;;;2.47;1.73;;;;;;;27.85;42.75;99517.56;5114047;27;20031;-89
2023/06/19 07:11:38;;;;;;;1.92;1.20;;;;;;;27.87;43.58;99502.06;5132399;27;20034;-90
2023/06/19 07:14:06;;;;;;;2.03;1.30;;;;;;;27.50;41.54;99510.75;5134590;27;20122;-89
2023/06/19 07:16:31;;;;;;;2.30;1.02;;;;;;;27.55;41.91;99497.66;5134771;27;20019;-88
2023/06/19 07:18:57;;;;;;;3.40;2.00;;;;;;;27.84;42.33;99488.78;5115120;27;20039;-93
2023/06/19 07:21:22;;;;;;;2.55;1.67;;;;;;;27.97;43.40;99538.19;5134213;27;20034;-90
2023/06/19 07:23:49;;;;;;;3.35;1.25;;;;;;;27.75;41.64;99503.16;5115886;27;20106;-89
2023/06/19 07:26:15;;;;;;;2.25;1.55;;;;;;;28.19;41.67;99577.78;5134468;27;20027;-88
2023/06/19 07:28:41;;;;;;;3.35;1.75;;;;;;;27.49;41.51;99466.56;5132762;27;20085;-89
2023/06/19 07:31:07;;;;;;;12.68;2.03;;;;;;;28.06;43.37;99503.13;5115833;27;20035;-91
2023/06/19 07:33:36;;;;;;;2.50;1.80;;;;;;;28.46;40.80;99507.59;5134074;27;20031;-92
2023/06/19 07:36:05;;;;;;;2.38;1.67;;;;;;;28.93;40.91;99491.41;5115647;27;20055;-90
2023/06/19 07:38:38;;;;;;;4.35;2.22;;;;;;;28.83;39.45;99518.56;5134662;27;20055;-90
2023/06/19 07:41:03;;;;;;;4.45;2.42;;;;;;;28.12;39.56;99491.72;5115432;27;20404;-89
2023/06/19 07:43:31;;;;;;;3.97;2.40;;;;;;;28.16;40.44;99502.13;5116564;27;20023;-91
2023/06/19 07:45:57;;;;;;;2.65;1.63;;;;;;;28.53;40.61;99549.41;5115436;27;20031;-92
2023/06/19 07:48:23;;;;;;;5.47;2.55;;;;;;;28.94;41.92;99569.13;5131790;27;20484;-94
2023/06/19 07:50:49;;;;;;;3.25;2.00;;;;;;;29.00;41.13;99525.13;5111182;27;20046;-93
2023/06/19 07:53:17;;;;;;;2.33;1.30;;;;;;;29.44;39.68;99546.34;5115828;27;20529;-92
2023/06/19 07:55:43;;;;;;;8.10;2.22;;;;;;;29.02;39.15;99504.09;5134590;27;20031;-92
2023/06/19 07:58:08;;;;;;;2.45;1.83;;;;;;;29.24;37.57;99534.66;5115646;27;20050;-94
2023/06/19 08:00:34;;;;;;;3.15;1.33;;;;;;;29.60;41.79;99522.09;5115914;27;20088;-90
2023/06/19 08:02:59;;;;;;;2.15;1.45;;;;;;;29.50;38.23;99534.88;5115816;27;20049;-91
2023/06/19 08:05:25;;;;;;;2.75;1.75;;;;;;;29.07;37.82;99544.41;5115502;27;20396;-91
2023/06/19 08:07:51;;;;;;;3.70;1.92;;;;;;;28.79;40.33;99511.72;5134149;27;20035;-90
2023/06/19 08:10:20;;;;;;;2.30;1.52;;;;;;;29.21;39.84;99533.13;5114967;27;20039;-93
2023/06/19 08:12:45;;;;;;;2.92;1.08;;;;;;;29.36;38.78;99538.91;5111848;28;20059;-90
2023/06/19 08:15:13;;;;;;;3.67;2.72;;;;;;;29.49;38.17;99573.06;5111559;28;20026;-92
2023/06/19 08:17:40;;;;;;;3.15;1.88;;;;;;;29.62;37.43;99555.41;5112079;28;20028;-93
2023/06/19 08:20:06;;;;;;;3.83;1.88;;;;;;;29.39;38.31;99538.63;5113749;27;20055;-91
2023/06/19 08:22:35;;;;;;;3.78;1.75;;;;;;;30.10;37.83;99583.41;5112012;28;20119;-92
2023/06/19 08:25:01;;;;;;;2.75;1.80;;;;;;;30.13;37.68;99582.25;5111673;28;20073;-93
2023/06/19 08:27:30;;;;;;;2.38;1.50;;;;;;;30.35;38.88;99532.88;5111913;28;20027;-91
2023/06/19 08:29:58;;;;;;;3.10;1.63;;;;;;;30.18;38.20;99528.25;5111272;28;20050;-92
2023/06/19 08:32:29;;;;;;;4.80;2.58;;;;;;;30.18;36.44;99550.88;5111728;28;20031;-92
2023/06/19 08:34:57;;;;;;;2.72;1.98;;;;;;;29.79;36.86;99533.91;5112042;28;20461;-92
2023/06/19 08:37:23;;;;;;;3.25;1.80;;;;;;;29.56;38.79;99531.56;5111509;28;20093;-89
2023/06/19 08:39:49;;;;;;;2.38;1.58;;;;;;;29.65;36.49;99491.78;5112186;28;20032;-92
2023/06/19 08:42:27;;;;;;;1.95;1.30;;;;;;;29.33;37.24;99512.06;5112594;28;20123;-95
2023/06/19 08:44:53;;;;;;;4.80;1.80;;;;;;;29.64;37.97;99531.69;5113005;28;20031;-93
2023/06/19 08:47:32;;;;;;;1.70;1.17;;;;;;;30.38;36.89;99591.53;5111644;28;20118;-92
2023/06/19 08:49:58;;;;;;;5.25;1.90;;;;;;;29.74;37.22;99511.75;5111000;28;20084;-92
2023/06/19 08:52:24;;;;;;;3.72;2.15;;;;;;;29.75;38.03;99513.44;5112323;28;20051;-89
2023/06/19 08:54:49;;;;;;;4.55;2.25;;;;;;;30.02;36.44;99520.78;5110267;28;20062;-90
2023/06/19 08:57:15;;;;;;;2.53;1.48;;;;;;;30.23;35.64;99552.28;5110551;28;20032;-91
2023/06/19 08:59:51;;;;;;;3.58;2.25;;;;;;;30.52;36.69;99533.91;5111223;28;20070;-91
2023/06/19 09:02:20;;;;;;;11.25;2.25;;;;;;;31.29;35.01;99508.81;5110207;28;20505;-92
2023/06/19 09:04:46;;;;;;;3.30;1.85;;;;;;;31.31;35.61;99574.06;5110736;28;20042;-90
2023/06/19 09:07:14;;;;;;;2.60;1.63;;;;;;;31.21;37.08;99511.50;5111596;28;20031;-91
2023/06/19 09:09:47;;;;;;;3.60;2.03;;;;;;;30.57;36.88;99517.13;5110447;28;20065;-90
2023/06/19 09:12:14;;;;;;;3.58;1.83;;;;;;;30.97;37.32;99548.47;5104484;28;20028;-90
2023/06/19 09:14:43;;;;;;;7.70;3.00;;;;;;;30.93;37.53;99499.88;5121174;27;20035;-92
2023/06/19 09:17:34;;;;;;;2.10;1.33;;;;;;;30.92;35.29;99499.00;5110957;27;20041;-87
2023/06/19 09:20:05;;;;;;;5.55;1.38;;;;;;;30.85;34.42;99495.25;5113789;27;20130;-93
2023/06/19 09:22:33;;;;;;;3.05;1.88;;;;;;;31.19;36.53;99495.31;5094422;28;20436;-94
2023/06/19 09:25:10;;;;;;;2.38;2.15;;;;;;;31.33;36.80;99503.94;5106552;28;20032;-94
2023/06/19 09:27:35;;;;;;;3.00;1.55;;;;;;;31.05;35.09;99551.22;5127016;27;20063;-89
2023/06/19 09:30:03;;;;;;;2.47;1.60;;;;;;;30.61;37.75;99493.16;5131790;27;20069;-89
2023/06/19 09:32:28;;;;;;;2.72;1.90;;;;;;;30.39;36.20;99518.97;5111436;27;20031;-92
2023/06/19 09:34:58;;;;;;;4.03;1.90;;;;;;;31.00;36.22;99529.09;5114056;27;20056;-92
2023/06/19 09:37:27;;;;;;;3.95;1.80;;;;;;;30.10;34.42;99490.94;5113923;27;20023;-95
2023/06/19 09:40:13;;;;;;;2.15;1.45;;;;;;;30.59;35.05;99476.16;5133473;27;20114;-95
2023/06/19 09:42:45;;;;;;;3.50;1.90;;;;;;;31.04;33.63;99507.81;5132918;27;20031;-88
2023/06/19 09:45:29;;;;;;;1.52;1.25;;;;;;;30.59;34.56;99459.81;5131353;27;20037;-93
2023/06/19 09:48:04;;;;;;;2.30;1.77;;;;;;;30.63;35.49;99527.38;5132036;27;20066;-95
2023/06/19 09:50:31;;;;;;;2.13;1.42;;;;;;;30.69;32.43;99463.28;5112250;27;20563;-91
2023/06/19 09:52:57;;;;;;;2.63;1.35;;;;;;;31.08;37.41;99490.16;5104059;27;20488;-94
2023/06/19 09:55:28;;;;;;;2.80;1.38;;;;;;;31.13;35.02;99468.72;5112536;28;20087;-94
2023/06/19 09:57:54;;;;;;;4.95;2.03;;;;;;;30.73;36.62;99444.78;5110161;28;20092;-92
2023/06/19 10:00:22;;;;;;;3.17;1.77;;;;;;;31.04;35.88;99464.25;5130049;27;20040;-95
2023/06/19 10:02:49;;;;;;;2.75;1.67;;;;;;;31.06;35.01;99486.72;5113338;28;20041;-94
2023/06/19 10:05:15;;;;;;;4.88;1.25;;;;;;;31.02;33.44;99490.78;5098789;28;20059;-92
2023/06/19 10:07:43;;;;;;;3.85;2.15;;;;;;;31.31;33.67;99454.16;5131072;28;20027;-92
2023/06/19 10:10:51;;;;;;;3.10;1.90;;;;;;;31.02;36.08;99458.13;5113396;28;20019;-94
2023/06/19 10:13:19;;;;;;;7.78;2.67;;;;;;;31.82;37.32;99497.84;5047029;28;20522;-91
2023/06/19 10:15:47;;;;;;;3.03;1.40;;;;;;;31.65;35.61;99473.25;5048789;28;20040;-90
2023/06/19 10:18:17;;;;;;;4.22;1.88;;;;;;;31.47;36.78;99439.78;5038330;28;20033;-95
2023/06/19 10:20:44;;;;;;;1.88;1.45;;;;;;;31.21;35.20;99436.06;5037601;28;20031;-95
2023/06/19 10:23:28;;;;;;;3.80;1.67;;;;;;;31.48;38.30;99453.25;5037604;28;20037;-91
2023/06/19 10:25:54;;;;;;;2.50;1.85;;;;;;;32.49;36.56;99489.69;5046123;28;20037;-92
2023/06/19 10:28:28;;;;;;;2.50;1.85;;;;;;;32.52;37.89;99499.38;5033886;28;20455;-91
2023/06/19 10:30:58;;;;;;;2.17;1.23;;;;;;;31.65;31.18;99436.97;5041883;28;20044;-91
2023/06/19 10:33:26;;;;;;;3.20;1.83;;;;;;;32.15;34.50;99452.47;5029635;28;20037;-91
2023/06/19 10:35:52;;;;;;;4.15;2.47;;;;;;;32.08;30.93;99508.66;5030041;28;20025;-89
2023/06/19 10:38:19;;;;;;;2.50;1.83;;;;;;;31.57;33.76;99484.13;5044266;28;20048;-88
2023/06/19 10:40:45;;;;;;;2.28;1.48;;;;;;;31.75;32.33;99493.06;5046742;28;20056;-90
2023/06/19 10:43:12;;;;;;;2.30;1.45;;;;;;;31.75;32.87;99446.72;5058318;28;20038;-90
2023/06/19 10:45:37;;;;;;;2.35;1.58;;;;;;;32.19;30.65;99429.25;5129899;28;20027;-90
2023/06/19 10:48:04;;;;;;;2.70;1.33;;;;;;;32.31;30.35;99441.53;5127417;28;20031;-89
2023/06/19 10:50:34;;;;;;;4.13;1.80;;;;;;;31.88;31.20;99426.28;5127991;28;20116;-89
2023/06/19 10:53:00;;;;;;;1.83;1.08;;;;;;;32.38;35.64;99474.50;5117424;28;20031;-89
2023/06/19 10:55:26;;;;;;;2.38;1.63;;;;;;;31.78;32.23;99407.38;5128904;28;20042;-90
2023/06/19 10:57:53;;;;;;;2.33;1.38;;;;;;;31.71;33.93;99441.75;5112223;28;20507;-90
2023/06/19 11:00:30;;;;;;;2.92;1.88;;;;;;;31.84;32.62;99433.97;5130292;28;20023;-90
2023/06/19 11:02:57;;;;;;;2.58;1.70;;;;;;;31.77;32.97;99436.47;5111852;28;20036;-90
2023/06/19 11:05:25;;;;;;;3.30;1.83;;;;;;;32.11;33.64;99424.66;5130318;28;20050;-90
2023/06/19 11:07:59;;;;;;;3.28;2.00;;;;;;;32.56;33.04;99447.00;5128912;28;20058;-88
2023/06/19 11:10:28;;;;;;;2.50;1.70;;;;;;;32.19;33.26;99412.88;5128663;27;20034;-93
2023/06/19 11:12:55;;;;;;;2.25;1.52;;;;;;;32.90;32.61;99459.63;5111989;28;20056;-89
2023/06/19 11:15:28;;;;;;;3.90;2.03;;;;;;;32.57;30.42;99382.38;5113314;28;20149;-89
2023/06/19 11:17:54;;;;;;;2.88;1.35;;;;;;;32.53;29.93;99441.88;5113612;28;20028;-89
2023/06/19 11:20:19;;;;;;;3.15;1.77;;;;;;;32.58;30.16;99430.47;5113952;28;20069;-89
2023/06/19 11:22:46;;;;;;;4.60;1.20;;;;;;;32.81;29.79;99428.78;5112068;28;20521;-87
2023/06/19 11:25:11;;;;;;;4.47;1.70;;;;;;;32.59;29.97;99396.69;5109002;28;20829;-92
2023/06/19 11:27:39;;;;;;;2.85;1.63;;;;;;;32.87;28.69;99442.75;5110864;28;20023;-91
2023/06/19 11:30:07;;;;;;;2.83;1.70;;;;;;;32.14;30.91;99393.47;5108637;28;20016;-88
2023/06/19 11:32:41;;;;;;;3.83;1.77;;;;;;;32.47;31.30;99399.78;5112942;28;20044;-88
2023/06/19 11:35:12;;;;;;;1.63;1.20;;;;;;;32.71;31.44;99443.63;5111666;28;20027;-92